Terminal Aerodrome Forecast
Issued by NWS Twin Cities, MN

Home | Current Version | Previous Version | Text Only | Print | Product List | Glossary On
Versions: 1 2 3 4 5 6 7 8 9 10 11 12 13 14 15 16 17 18 19 20 21 22 23 24 25
000
FTUS43 KMPX 231815 AAA
TAFMSP
TAF AMD
KMSP 231815Z 2318/2424 04008KT P6SM VCSH SCT020 BKN040 OVC080
     FM240200 02006KT P6SM BKN070
     FM240900 01006KT P6SM SCT015 BKN025
     FM241700 03005KT P6SM SCT045=

USA.gov is the U.S. government's official web portal to all federal, state and local government web resources and services.